Time;durP1;ratioP1;P1;durP2;ratioP2;P2;SDS_P1;SDS_P2;PMS_P1;PMS_P2;Temp;Humidity;BMP_temperature;BMP_pressure;BME280_temperature;BME280_humidity;BME280_pressure;Samples;Min_cycle;Max_cycle;Signal;HPM_P1;HPM_P2
2022/01/18 00:00:23;;;;;;;34.72;4.75;;;6.60;99.90;;;;;;5075441;28;20043;-81
2022/01/18 00:02:49;;;;;;;36.92;5.60;;;6.60;99.90;;;;;;5075079;28;20080;-85
2022/01/18 00:05:16;;;;;;;38.08;6.00;;;6.50;99.90;;;;;;5059046;28;20044;-83
2022/01/18 00:07:43;;;;;;;29.83;5.22;;;6.50;99.90;;;;;;5055243;28;20493;-83
2022/01/18 00:10:10;;;;;;;31.83;4.32;;;6.40;99.90;;;;;;5071797;28;20392;-83
2022/01/18 00:18:05;;;;;;;34.03;4.55;;;6.40;99.90;;;;;;5074690;28;20048;-76
2022/01/18 00:23:17;;;;;;;27.55;4.43;;;6.30;99.90;;;;;;5074769;28;20123;-82
2022/01/18 00:25:47;;;;;;;28.23;4.35;;;6.20;99.90;;;;;;5075596;28;20062;-84
2022/01/18 00:28:13;;;;;;;35.00;5.10;;;6.20;99.90;;;;;;5075001;28;20486;-84
2022/01/18 00:33:24;;;;;;;36.17;4.38;;;6.20;99.90;;;;;;5058540;28;20055;-72
2022/01/18 00:36:00;;;;;;;27.02;4.43;;;6.20;99.90;;;;;;5038134;28;20103;-84
2022/01/18 00:38:32;;;;;;;27.70;3.90;;;6.20;99.90;;;;;;5073010;28;20092;-83
2022/01/18 00:40:59;;;;;;;31.45;4.75;;;6.20;99.90;;;;;;5074751;28;20400;-83
2022/01/18 00:43:32;;;;;;;33.22;4.07;;;6.10;99.90;;;;;;5074623;28;20120;-83
2022/01/18 00:45:58;;;;;;;26.55;4.32;;;6.10;99.90;;;;;;5074764;28;20569;-73
2022/01/18 00:48:23;;;;;;;31.13;3.80;;;6.10;99.90;;;;;;5043839;28;20132;-82
2022/01/18 00:50:49;;;;;;;26.38;3.97;;;6.10;99.90;;;;;;5065527;28;20052;-72
2022/01/18 00:53:18;;;;;;;26.17;3.60;;;6.00;99.90;;;;;;5074862;28;20058;-80
2022/01/18 00:55:52;;;;;;;31.00;3.63;;;6.00;99.90;;;;;;5074516;28;20469;-83
2022/01/18 00:58:18;;;;;;;35.10;4.68;;;6.00;99.90;;;;;;5073907;28;20055;-72
2022/01/18 01:00:44;;;;;;;25.98;4.40;;;6.00;99.90;;;;;;5074673;28;20040;-83
2022/01/18 01:03:10;;;;;;;29.23;3.90;;;6.00;99.90;;;;;;5058140;28;20646;-84
2022/01/18 01:05:35;;;;;;;28.00;3.75;;;6.00;99.90;;;;;;5073713;28;20052;-82
2022/01/18 01:08:02;;;;;;;39.25;4.22;;;6.00;99.90;;;;;;5074486;28;20101;-84
2022/01/18 01:10:29;;;;;;;39.20;4.63;;;6.00;99.90;;;;;;5074015;28;20032;-84
2022/01/18 01:12:55;;;;;;;45.88;4.05;;;6.00;99.90;;;;;;5074002;28;20418;-81
2022/01/18 01:15:23;;;;;;;30.05;4.63;;;6.00;99.90;;;;;;5057474;28;20177;-81
2022/01/18 01:18:09;;;;;;;40.92;4.85;;;6.00;99.90;;;;;;5074203;28;20067;-81
2022/01/18 01:41:40;;;;;;;38.42;4.65;;;6.00;99.90;;;;;;5074037;28;20044;-69
2022/01/18 01:45:03;;;;;;;37.25;4.88;;;6.10;99.90;;;;;;5073857;28;20480;-79
2022/01/18 01:47:36;;;;;;;27.85;4.80;;;6.10;99.90;;;;;;5052517;28;20856;-70
2022/01/18 01:50:05;;;;;;;52.10;5.68;;;6.10;99.90;;;;;;5070184;28;20092;-81
2022/01/18 01:52:30;;;;;;;46.47;5.90;;;6.00;99.90;;;;;;5053247;28;20052;-80
2022/01/18 01:54:56;;;;;;;37.83;4.68;;;6.10;99.90;;;;;;5053080;28;20048;-69
2022/01/18 01:57:22;;;;;;;35.13;4.13;;;6.10;99.90;;;;;;5070098;28;20400;-80
2022/01/18 01:59:49;;;;;;;37.83;5.10;;;6.10;99.90;;;;;;5070054;28;20083;-68
2022/01/18 02:02:14;;;;;;;51.30;5.63;;;6.10;99.90;;;;;;5069099;28;20051;-81
2022/01/18 02:04:40;;;;;;;44.92;4.38;;;6.10;99.90;;;;;;5070387;28;20041;-80
2022/01/18 02:07:06;;;;;;;33.28;4.55;;;6.10;99.90;;;;;;5069394;28;20051;-80
2022/01/18 02:09:32;;;;;;;41.95;5.38;;;6.10;99.90;;;;;;5037138;28;20036;-80
2022/01/18 02:12:00;;;;;;;38.95;4.45;;;6.10;99.90;;;;;;5069416;28;20615;-80
2022/01/18 02:14:27;;;;;;;41.22;5.38;;;6.10;99.90;;;;;;5069219;28;20145;-76
2022/01/18 02:22:21;;;;;;;41.90;5.82;;;6.10;99.90;;;;;;5069153;28;20045;-78
2022/01/18 02:24:47;;;;;;;44.60;5.05;;;6.10;99.90;;;;;;5069815;28;20047;-77
2022/01/18 02:27:13;;;;;;;44.58;5.47;;;6.10;99.90;;;;;;5082544;28;20080;-80
2022/01/18 02:29:39;;;;;;;49.20;4.93;;;6.20;99.90;;;;;;5066744;28;20131;-78
2022/01/18 02:32:05;;;;;;;40.42;5.03;;;6.20;99.90;;;;;;5070110;28;20070;-78
2022/01/18 02:34:31;;;;;;;37.92;4.75;;;6.20;99.90;;;;;;5069492;28;20400;-82
2022/01/18 02:36:59;;;;;;;42.15;4.70;;;6.20;99.90;;;;;;5068868;28;20044;-77
2022/01/18 02:39:27;;;;;;;39.17;5.63;;;6.20;99.90;;;;;;5052052;28;20555;-80
2022/01/18 02:41:58;;;;;;;35.63;5.35;;;6.20;99.90;;;;;;5069186;28;20056;-81
2022/01/18 02:44:25;;;;;;;41.30;5.53;;;6.20;99.90;;;;;;5052140;28;20074;-81
2022/01/18 02:46:51;;;;;;;32.88;4.75;;;6.20;99.90;;;;;;5042262;28;20545;-81
2022/01/18 02:49:17;;;;;;;40.85;5.43;;;6.20;99.90;;;;;;5066412;28;20048;-81
2022/01/18 02:51:43;;;;;;;39.25;5.22;;;6.20;99.90;;;;;;5055670;28;20157;-81
2022/01/18 02:54:11;;;;;;;42.28;5.10;;;6.20;99.90;;;;;;5073046;28;20459;-75
2022/01/18 02:56:47;;;;;;;43.35;5.65;;;6.20;99.90;;;;;;5040682;28;20044;-75
2022/01/18 03:04:23;;;;;;;34.75;5.85;;;6.20;99.90;;;;;;5071660;28;20048;-78
2022/01/18 03:06:49;;;;;;;53.03;6.30;;;6.20;99.90;;;;;;5072714;28;20046;-80
2022/01/18 03:09:15;;;;;;;36.83;5.57;;;6.20;99.90;;;;;;5055330;28;20127;-80
2022/01/18 03:11:41;;;;;;;29.88;4.68;;;6.20;99.90;;;;;;5055367;28;20082;-81
2022/01/18 03:14:07;;;;;;;44.13;5.97;;;6.20;99.90;;;;;;5072263;28;20040;-75
2022/01/18 03:16:33;;;;;;;36.00;5.25;;;6.20;99.90;;;;;;5091003;28;20044;-80
2022/01/18 03:18:58;;;;;;;53.83;6.57;;;6.30;99.90;;;;;;5089717;28;20374;-80
2022/01/18 03:21:24;;;;;;;30.35;5.57;;;6.20;99.90;;;;;;5072782;28;20040;-80
2022/01/18 03:23:59;;;;;;;30.70;4.78;;;6.30;99.90;;;;;;5050332;28;20052;-74
2022/01/18 03:26:32;;;;;;;46.47;5.15;;;6.20;99.90;;;;;;5072109;28;20040;-82
2022/01/18 03:28:59;;;;;;;19.27;3.97;;;6.30;99.90;;;;;;5055499;28;20024;-80
2022/01/18 03:31:25;;;;;;;25.92;4.55;;;6.20;99.90;;;;;;5075899;28;20086;-80
2022/01/18 03:33:50;;;;;;;58.47;6.57;;;6.30;99.90;;;;;;5075722;28;20084;-79
2022/01/18 03:36:16;;;;;;;29.77;4.80;;;6.20;99.90;;;;;;5076016;28;20093;-80
2022/01/18 03:38:42;;;;;;;36.80;5.90;;;6.20;99.90;;;;;;5074971;28;20515;-78
2022/01/18 03:41:07;;;;;;;47.90;6.32;;;6.20;99.90;;;;;;5059725;28;20500;-73
2022/01/18 03:43:38;;;;;;;38.40;6.05;;;6.20;99.90;;;;;;5075904;28;20112;-78
2022/01/18 03:46:05;;;;;;;39.08;6.82;;;6.20;99.90;;;;;;5075863;28;20145;-75
2022/01/18 03:48:37;;;;;;;23.73;6.20;;;6.20;99.90;;;;;;5072152;28;20053;-80
2022/01/18 03:51:05;;;;;;;21.65;6.07;;;6.20;99.90;;;;;;5072657;28;20052;-79
2022/01/18 03:53:30;;;;;;;49.40;7.78;;;6.20;99.90;;;;;;5071864;28;20043;-78
2022/01/18 03:55:56;;;;;;;22.27;6.70;;;6.20;99.90;;;;;;5072392;28;20052;-80
2022/01/18 03:58:23;;;;;;;26.33;6.55;;;6.20;99.90;;;;;;5072058;28;20045;-81
2022/01/18 04:00:50;;;;;;;37.28;7.07;;;6.20;99.90;;;;;;5071813;28;20052;-80
2022/01/18 04:03:16;;;;;;;25.63;7.28;;;6.20;99.90;;;;;;5072602;28;20052;-75
2022/01/18 04:05:42;;;;;;;24.35;7.28;;;6.20;99.90;;;;;;5072628;28;20059;-79
2022/01/18 04:08:08;;;;;;;32.45;7.38;;;6.10;99.90;;;;;;5071171;28;20044;-80
2022/01/18 04:10:34;;;;;;;28.50;6.65;;;6.20;99.90;;;;;;5072175;28;20109;-80
2022/01/18 04:12:59;;;;;;;25.10;6.57;;;6.20;99.90;;;;;;5055478;28;20044;-79
2022/01/18 04:15:25;;;;;;;38.72;7.15;;;6.20;99.90;;;;;;5071665;28;20048;-81
2022/01/18 04:26:04;;;;;;;29.70;7.63;;;6.10;99.90;;;;;;5071481;28;20048;-79
2022/01/18 04:31:03;;;;;;;;;;;6.20;99.90;;;;;;5071900;28;20553;-80
2022/01/18 04:33:28;;;;;;;37.22;7.93;;;6.20;99.90;;;;;;5072114;28;19921;-73
2022/01/18 04:35:54;;;;;;;32.05;6.95;;;6.20;99.90;;;;;;5070693;28;20055;-83
2022/01/18 04:38:20;;;;;;;39.35;8.57;;;6.20;99.90;;;;;;5054454;28;20084;-84
2022/01/18 04:40:47;;;;;;;24.73;8.23;;;6.20;99.90;;;;;;5070989;28;20055;-79
2022/01/18 04:43:20;;;;;;;28.35;7.78;;;6.30;99.90;;;;;;5054471;28;20132;-80
2022/01/18 04:48:33;;;;;;;28.50;6.70;;;6.20;99.90;;;;;;5071164;28;20052;-81
2022/01/18 04:51:07;;;;;;;24.67;6.82;;;6.20;99.90;;;;;;5070353;28;20091;-81
2022/01/18 04:53:34;;;;;;;24.15;6.53;;;6.20;99.90;;;;;;5071466;28;20501;-79
2022/01/18 04:56:05;;;;;;;25.20;6.32;;;6.20;99.90;;;;;;5053668;28;20048;-81
2022/01/18 04:58:30;;;;;;;19.55;5.55;;;6.20;99.90;;;;;;5054932;28;20135;-82
2022/01/18 05:00:59;;;;;;;17.77;5.13;;;6.20;99.90;;;;;;5071033;28;20536;-81
2022/01/18 05:03:26;;;;;;;22.48;5.00;;;6.20;99.90;;;;;;5070589;28;20048;-83
2022/01/18 05:05:55;;;;;;;17.70;4.22;;;6.20;99.90;;;;;;5070927;28;20088;-82
2022/01/18 05:08:21;;;;;;;21.20;3.95;;;6.20;99.90;;;;;;5071529;28;20447;-84
2022/01/18 05:10:53;;;;;;;16.30;4.22;;;6.10;99.90;;;;;;5070095;28;20044;-69
2022/01/18 05:16:26;;;;;;;19.58;4.40;;;6.10;99.90;;;;;;5070664;28;20048;-68
2022/01/18 05:21:34;;;;;;;18.75;4.45;;;6.10;99.90;;;;;;5070943;28;20049;-73
2022/01/18 05:23:59;;;;;;;13.98;3.95;;;6.10;99.90;;;;;;5054071;28;20113;-80
2022/01/18 05:26:27;;;;;;;18.88;4.45;;;6.10;99.90;;;;;;5070830;28;20505;-82
2022/01/18 05:28:53;;;;;;;17.88;4.97;;;6.00;99.90;;;;;;5070455;28;20052;-81
2022/01/18 05:31:19;;;;;;;17.83;4.80;;;6.10;99.90;;;;;;5086696;28;20123;-74
2022/01/18 05:33:46;;;;;;;23.63;5.57;;;6.10;99.90;;;;;;5070689;28;20084;-83
2022/01/18 05:36:13;;;;;;;22.20;5.82;;;6.00;99.90;;;;;;5070523;28;20044;-81
2022/01/18 05:38:39;;;;;;;15.52;4.50;;;6.00;99.90;;;;;;5069834;28;20040;-81
2022/01/18 05:41:07;;;;;;;24.38;5.57;;;6.10;99.90;;;;;;5070323;28;20094;-80
2022/01/18 05:43:33;;;;;;;20.80;5.68;;;6.00;99.90;;;;;;5070164;28;20123;-82
2022/01/18 05:45:59;;;;;;;18.52;5.43;;;6.00;99.90;;;;;;5069813;28;20127;-82
2022/01/18 05:48:25;;;;;;;29.27;5.35;;;6.00;99.90;;;;;;5069873;28;20600;-80
2022/01/18 05:50:53;;;;;;;15.93;5.03;;;6.00;99.90;;;;;;5054145;28;20051;-79
2022/01/18 05:53:19;;;;;;;16.55;5.80;;;6.10;99.90;;;;;;5052066;28;20512;-73
2022/01/18 05:55:45;;;;;;;27.88;6.53;;;6.00;99.90;;;;;;5070014;28;20079;-82
2022/01/18 05:58:10;;;;;;;13.32;4.45;;;5.90;99.90;;;;;;5070017;28;20040;-79
2022/01/18 06:00:38;;;;;;;20.40;4.22;;;5.80;99.90;;;;;;5070251;28;20048;-72
2022/01/18 06:03:13;;;;;;;19.05;4.28;;;5.70;99.90;;;;;;5069423;28;20043;-82
2022/01/18 06:08:23;;;;;;;13.30;4.07;;;5.40;99.90;;;;;;5069015;28;20049;-75
2022/01/18 06:10:48;;;;;;;12.98;3.72;;;5.30;99.90;;;;;;5070254;28;20055;-79
2022/01/18 06:13:14;;;;;;;12.70;3.67;;;5.30;99.90;;;;;;5069289;28;20085;-80
2022/01/18 06:15:40;;;;;;;13.73;4.03;;;5.20;99.90;;;;;;5069371;28;20075;-75
2022/01/18 06:18:06;;;;;;;21.13;5.13;;;5.10;99.90;;;;;;5070071;28;20139;-70
2022/01/18 06:20:33;;;;;;;26.02;4.43;;;5.10;99.90;;;;;;5069573;28;20041;-79
2022/01/18 06:22:59;;;;;;;12.55;3.50;;;5.00;99.90;;;;;;5069542;28;20506;-79
2022/01/18 06:25:25;;;;;;;15.65;5.10;;;5.00;99.90;;;;;;5071008;28;20119;-80
2022/01/18 06:27:51;;;;;;;21.10;5.30;;;5.10;99.90;;;;;;5068725;28;20572;-79
2022/01/18 06:30:18;;;;;;;21.65;5.20;;;5.00;99.90;;;;;;5070339;28;20036;-79
2022/01/18 06:32:44;;;;;;;20.33;5.25;;;5.10;99.90;;;;;;5052443;28;20040;-79
2022/01/18 06:35:11;;;;;;;15.73;4.40;;;5.20;99.90;;;;;;5068687;28;20048;-78
2022/01/18 06:37:37;;;;;;;14.00;5.18;;;5.20;99.90;;;;;;5069085;28;20370;-78
2022/01/18 06:40:04;;;;;;;15.05;5.15;;;5.20;99.90;;;;;;5053157;28;20045;-81
2022/01/18 06:42:31;;;;;;;16.80;5.30;;;5.30;99.90;;;;;;5068532;28;20075;-77
2022/01/18 06:44:57;;;;;;;18.38;5.47;;;5.30;99.90;;;;;;5069454;28;20119;-75
2022/01/18 06:47:22;;;;;;;16.48;5.13;;;5.40;99.90;;;;;;5069327;28;20488;-77
2022/01/18 06:49:48;;;;;;;16.60;6.30;;;5.40;99.90;;;;;;5068698;28;20135;-74
2022/01/18 06:52:14;;;;;;;18.58;5.65;;;5.40;99.90;;;;;;5069559;28;20052;-77
2022/01/18 06:54:39;;;;;;;17.73;5.78;;;5.40;99.90;;;;;;5069390;28;20053;-78
2022/01/18 06:57:05;;;;;;;23.00;5.90;;;5.50;99.90;;;;;;5068827;28;20056;-76
2022/01/18 06:59:31;;;;;;;15.85;5.18;;;5.50;99.90;;;;;;5069230;28;20444;-78
2022/01/18 07:01:57;;;;;;;18.83;6.15;;;5.50;99.90;;;;;;5046175;28;20071;-71
2022/01/18 07:04:22;;;;;;;23.80;5.95;;;5.50;99.90;;;;;;5050958;28;20121;-77
2022/01/18 07:06:48;;;;;;;15.88;5.80;;;5.60;99.90;;;;;;5073661;28;20143;-76
2022/01/18 07:09:15;;;;;;;21.08;5.47;;;5.60;99.90;;;;;;5056405;28;20055;-79
2022/01/18 07:11:42;;;;;;;19.45;4.57;;;5.60;99.90;;;;;;5073061;28;20126;-78
2022/01/18 07:14:08;;;;;;;11.73;4.25;;;5.70;99.90;;;;;;5073529;28;20550;-85
2022/01/18 07:16:33;;;;;;;18.13;4.63;;;5.70;99.90;;;;;;5053139;28;20041;-81
2022/01/18 07:18:59;;;;;;;11.90;5.22;;;5.70;99.90;;;;;;5064154;28;20044;-70
2022/01/18 07:21:25;;;;;;;20.42;6.13;;;5.70;99.90;;;;;;5038271;28;20476;-79
2022/01/18 07:23:58;;;;;;;23.17;6.57;;;5.70;99.90;;;;;;5058972;28;20040;-80
2022/01/18 07:26:24;;;;;;;16.23;5.93;;;5.80;99.90;;;;;;5038927;28;20041;-73
2022/01/18 07:28:50;;;;;;;19.08;6.38;;;5.70;99.90;;;;;;5059178;28;20033;-73
2022/01/18 07:31:15;;;;;;;21.80;6.03;;;5.80;99.90;;;;;;5072872;28;20064;-78
2022/01/18 07:33:41;;;;;;;15.73;5.72;;;5.70;99.90;;;;;;5070611;28;20115;-79
2022/01/18 07:36:07;;;;;;;23.50;6.05;;;5.80;99.90;;;;;;5056243;28;20041;-78
2022/01/18 07:38:33;;;;;;;16.95;6.28;;;5.80;99.90;;;;;;5055124;28;20043;-81
2022/01/18 07:40:58;;;;;;;16.17;7.35;;;5.80;99.90;;;;;;5056490;28;20048;-72
2022/01/18 07:43:24;;;;;;;21.35;7.07;;;5.80;99.90;;;;;;5055347;28;20072;-79
2022/01/18 07:45:50;;;;;;;24.02;7.70;;;5.80;99.90;;;;;;5071811;28;20088;-71
2022/01/18 07:48:21;;;;;;;22.60;7.78;;;5.80;99.90;;;;;;5048762;28;20416;-71
2022/01/18 07:50:47;;;;;;;22.70;7.80;;;5.80;99.90;;;;;;5052965;28;20053;-72
2022/01/18 07:53:12;;;;;;;20.58;7.68;;;5.80;99.90;;;;;;5068344;28;20158;-72
2022/01/18 07:55:39;;;;;;;25.50;7.00;;;5.90;99.90;;;;;;5056131;28;20055;-71
2022/01/18 07:58:05;;;;;;;25.95;7.15;;;5.90;99.90;;;;;;5071437;28;20462;-81
2022/01/18 08:00:31;;;;;;;22.00;7.78;;;5.90;99.90;;;;;;5071126;28;20052;-78
2022/01/18 08:02:56;;;;;;;18.33;7.93;;;5.90;99.90;;;;;;5072138;28;20037;-71
2022/01/18 08:05:22;;;;;;;27.92;8.23;;;5.90;99.90;;;;;;5072216;28;20410;-78
2022/01/18 08:07:48;;;;;;;23.23;7.70;;;5.90;99.90;;;;;;5054498;28;20044;-74
2022/01/18 08:10:17;;;;;;;19.88;7.70;;;5.90;99.90;;;;;;5071803;28;20055;-71
2022/01/18 08:12:43;;;;;;;25.38;8.05;;;6.00;99.90;;;;;;5045849;28;20044;-72
2022/01/18 08:15:15;;;;;;;24.98;7.85;;;6.00;99.90;;;;;;5070496;28;20053;-78
2022/01/18 08:17:43;;;;;;;26.23;6.32;;;6.00;99.90;;;;;;5071733;28;20634;-76
2022/01/18 08:20:13;;;;;;;24.00;7.25;;;6.00;99.90;;;;;;5071373;28;20036;-78
2022/01/18 08:22:43;;;;;;;18.23;7.25;;;6.00;99.90;;;;;;5069776;28;20497;-78
2022/01/18 08:25:10;;;;;;;17.67;6.80;;;6.00;99.90;;;;;;5068736;28;20536;-78
2022/01/18 08:27:36;;;;;;;18.45;6.82;;;6.10;99.90;;;;;;5071444;28;20113;-71
2022/01/18 08:30:04;;;;;;;18.08;5.97;;;6.20;99.90;;;;;;5069582;28;20052;-76
2022/01/18 08:32:30;;;;;;;17.92;5.88;;;6.10;99.90;;;;;;5088067;28;20067;-77
2022/01/18 08:34:56;;;;;;;18.88;6.38;;;6.20;99.90;;;;;;5071381;28;20056;-72
2022/01/18 08:37:21;;;;;;;20.77;6.53;;;6.20;99.90;;;;;;5036778;28;20080;-77
2022/01/18 08:39:47;;;;;;;21.25;6.25;;;6.20;99.90;;;;;;5040496;28;20435;-72
2022/01/18 08:42:13;;;;;;;15.18;6.13;;;6.20;99.90;;;;;;5070638;28;20044;-78
2022/01/18 08:44:43;;;;;;;22.33;6.55;;;6.20;99.90;;;;;;5054938;28;20040;-78
2022/01/18 08:47:13;;;;;;;26.33;6.00;;;6.20;99.90;;;;;;5071595;28;20106;-72
2022/01/18 08:49:40;;;;;;;24.98;6.40;;;6.20;99.90;;;;;;5067818;28;20167;-77
2022/01/18 08:52:06;;;;;;;14.38;6.05;;;6.20;99.90;;;;;;5070167;28;20048;-74
2022/01/18 08:54:32;;;;;;;18.48;6.35;;;6.30;99.90;;;;;;5069322;28;20044;-78
2022/01/18 08:56:58;;;;;;;17.33;5.55;;;6.30;99.90;;;;;;5069878;28;20094;-71
2022/01/18 08:59:24;;;;;;;17.88;5.95;;;6.30;99.90;;;;;;5067923;28;20040;-78
2022/01/18 09:01:50;;;;;;;13.95;5.00;;;6.40;99.90;;;;;;5053976;28;20078;-71
2022/01/18 09:04:16;;;;;;;15.98;4.75;;;6.40;99.90;;;;;;5069247;28;20564;-74
2022/01/18 09:06:43;;;;;;;13.77;4.68;;;6.40;99.90;;;;;;5063921;28;20127;-78
2022/01/18 09:09:11;;;;;;;12.18;5.18;;;6.50;99.90;;;;;;5069337;28;20438;-78
2022/01/18 09:11:37;;;;;;;15.50;5.03;;;6.50;99.90;;;;;;5070266;28;20044;-71
2022/01/18 09:14:02;;;;;;;15.57;5.00;;;6.50;99.90;;;;;;5069416;28;20048;-78
2022/01/18 09:16:28;;;;;;;8.82;3.90;;;6.50;99.90;;;;;;5053532;28;20067;-71
2022/01/18 09:18:53;;;;;;;9.55;3.75;;;6.50;99.90;;;;;;5050720;28;20081;-78
2022/01/18 09:21:19;;;;;;;14.32;4.18;;;6.60;99.90;;;;;;5068505;28;20036;-78
2022/01/18 09:23:45;;;;;;;11.77;3.70;;;6.60;99.90;;;;;;5070479;28;20401;-77
2022/01/18 09:26:13;;;;;;;12.35;3.80;;;6.60;99.90;;;;;;5067474;28;20171;-78
2022/01/18 09:28:39;;;;;;;10.57;3.65;;;6.60;99.90;;;;;;5036654;28;20166;-77
2022/01/18 09:31:05;;;;;;;9.45;3.83;;;6.60;99.90;;;;;;5070300;28;20119;-77
2022/01/18 09:33:30;;;;;;;8.20;3.08;;;6.60;99.90;;;;;;5053545;28;20536;-77
2022/01/18 09:35:56;;;;;;;13.65;3.00;;;6.70;99.90;;;;;;5045499;28;20041;-76
2022/01/18 09:38:22;;;;;;;7.85;2.85;;;6.70;99.90;;;;;;5063387;28;20135;-77
2022/01/18 09:40:49;;;;;;;8.20;2.72;;;6.80;99.90;;;;;;5067722;28;20075;-78
2022/01/18 09:43:16;;;;;;;7.65;2.95;;;6.80;99.90;;;;;;5066475;28;20043;-78
2022/01/18 09:45:44;;;;;;;11.23;3.28;;;6.90;99.90;;;;;;5069235;28;20047;-77
2022/01/18 09:48:12;;;;;;;11.93;3.10;;;6.90;99.90;;;;;;5068439;28;20060;-78
2022/01/18 09:50:39;;;;;;;10.07;2.65;;;6.90;99.90;;;;;;5070227;28;20043;-71
2022/01/18 09:53:08;;;;;;;7.95;3.03;;;7.00;99.90;;;;;;5068174;28;20048;-78
2022/01/18 09:55:35;;;;;;;10.30;2.88;;;7.00;99.90;;;;;;5038429;28;20044;-78
2022/01/18 09:58:06;;;;;;;5.57;2.70;;;7.10;99.90;;;;;;5067882;28;20039;-72
2022/01/18 10:00:33;;;;;;;10.60;2.47;;;7.10;99.90;;;;;;5066165;28;20044;-77
2022/01/18 10:02:59;;;;;;;7.53;2.22;;;7.10;99.90;;;;;;5070048;28;20052;-71
2022/01/18 10:05:34;;;;;;;6.13;1.83;;;7.20;99.90;;;;;;5067899;28;20135;-79
2022/01/18 10:08:06;;;;;;;6.93;2.00;;;7.20;99.90;;;;;;5067571;28;20041;-77
2022/01/18 10:11:14;;;;;;;5.75;1.77;;;7.30;99.90;;;;;;5067670;28;20522;-78
2022/01/18 10:13:41;;;;;;;7.35;0.80;;;7.40;99.90;;;;;;5049555;28;20052;-78
2022/01/18 10:16:21;;;;;;;4.50;0.52;;;7.40;99.90;;;;;;5052287;28;20127;-77
2022/01/18 10:19:02;;;;;;;5.63;0.52;;;7.40;99.90;;;;;;5067013;28;20071;-78
2022/01/18 10:21:30;;;;;;;4.40;0.32;;;7.40;99.90;;;;;;5068064;28;20409;-71
2022/01/18 10:24:11;;;;;;;7.30;0.68;;;7.50;99.90;;;;;;5053193;28;20070;-85
2022/01/18 10:26:41;;;;;;;3.38;0.70;;;7.50;99.90;;;;;;5069359;28;20488;-72
2022/01/18 10:29:08;;;;;;;6.00;0.77;;;7.40;99.90;;;;;;5069745;28;20041;-72
2022/01/18 10:31:43;;;;;;;6.70;1.27;;;7.40;99.90;;;;;;5069511;28;20132;-82
2022/01/18 10:34:21;;;;;;;5.40;0.90;;;7.40;99.90;;;;;;5069891;28;20043;-84
2022/01/18 10:36:56;;;;;;;6.03;1.17;;;7.40;99.90;;;;;;5069350;28;20047;-78
2022/01/18 10:39:23;;;;;;;6.78;1.45;;;7.40;99.90;;;;;;5068181;28;20533;-81
2022/01/18 10:41:49;;;;;;;7.70;2.17;;;7.30;99.90;;;;;;5068768;28;20053;-79
2022/01/18 10:44:15;;;;;;;5.15;1.85;;;7.30;99.90;;;;;;5069777;28;20036;-71
2022/01/18 10:46:56;;;;;;;9.07;1.95;;;7.30;99.90;;;;;;5068999;28;20477;-79
2022/01/18 10:49:27;;;;;;;6.28;1.83;;;7.30;99.90;;;;;;5072981;28;20087;-78
2022/01/18 10:52:05;;;;;;;4.85;2.03;;;7.30;99.90;;;;;;5072240;28;20077;-79
2022/01/18 10:54:36;;;;;;;5.40;1.80;;;7.40;99.90;;;;;;5072417;28;20097;-79
2022/01/18 10:57:06;;;;;;;8.43;1.33;;;7.40;99.90;;;;;;5072074;28;20430;-78
2022/01/18 10:59:31;;;;;;;6.80;1.80;;;7.50;99.90;;;;;;5072905;28;20048;-79
2022/01/18 11:02:17;;;;;;;10.07;1.50;;;7.50;99.90;;;;;;5072099;28;20055;-79
2022/01/18 11:04:46;;;;;;;5.00;1.45;;;7.50;99.90;;;;;;5073105;28;20131;-79
2022/01/18 11:07:12;;;;;;;7.90;1.92;;;7.50;99.90;;;;;;5071517;28;20051;-79
2022/01/18 11:09:38;;;;;;;7.00;2.03;;;7.50;99.90;;;;;;5073301;28;20052;-72
2022/01/18 11:12:05;;;;;;;7.65;2.65;;;7.50;99.90;;;;;;5071993;28;20084;-75
2022/01/18 11:14:32;;;;;;;7.15;2.60;;;7.50;99.90;;;;;;5072490;28;20672;-79
2022/01/18 11:16:59;;;;;;;9.38;2.92;;;7.60;99.90;;;;;;5055390;28;20040;-80
2022/01/18 11:19:31;;;;;;;10.50;2.40;;;7.60;99.90;;;;;;5072943;28;20044;-79
2022/01/18 11:22:06;;;;;;;7.30;2.22;;;7.60;99.90;;;;;;5071305;28;20047;-77
2022/01/18 11:24:34;;;;;;;8.20;2.08;;;7.60;99.90;;;;;;5073078;28;20036;-79
2022/01/18 11:27:01;;;;;;;8.27;2.25;;;7.60;99.90;;;;;;5072210;28;20492;-71
2022/01/18 11:29:27;;;;;;;7.90;2.25;;;7.60;99.90;;;;;;5072014;28;20503;-79
2022/01/18 11:31:54;;;;;;;9.07;2.88;;;7.50;99.90;;;;;;5072693;28;20392;-79
2022/01/18 11:34:46;;;;;;;8.68;2.50;;;7.60;99.90;;;;;;5072583;28;20072;-71
2022/01/18 11:37:21;;;;;;;8.20;2.70;;;7.60;99.90;;;;;;5071722;28;20052;-79
2022/01/18 11:39:46;;;;;;;7.00;2.50;;;7.60;99.90;;;;;;5072450;28;20044;-72
2022/01/18 11:42:13;;;;;;;10.77;2.72;;;7.60;99.90;;;;;;5071332;28;20051;-79
2022/01/18 11:44:40;;;;;;;7.35;3.17;;;7.60;99.90;;;;;;5072291;28;20040;-80
2022/01/18 11:47:08;;;;;;;8.43;3.42;;;7.60;99.90;;;;;;5069064;28;20044;-79
2022/01/18 11:49:34;;;;;;;11.88;3.42;;;7.60;99.90;;;;;;5068523;28;20063;-71
2022/01/18 11:52:06;;;;;;;10.73;3.85;;;7.60;99.90;;;;;;5041228;28;20122;-77
2022/01/18 11:54:44;;;;;;;11.90;4.70;;;7.60;99.90;;;;;;5049334;28;20484;-80
2022/01/18 11:57:22;;;;;;;12.68;4.57;;;7.60;99.90;;;;;;5072232;28;20056;-80
2022/01/18 11:59:52;;;;;;;10.25;4.47;;;7.70;99.90;;;;;;5071419;28;20135;-71
2022/01/18 12:02:29;;;;;;;11.00;4.07;;;7.60;99.90;;;;;;5056340;28;20044;-80
2022/01/18 12:04:57;;;;;;;11.88;4.25;;;7.60;99.90;;;;;;5071502;28;20146;-80
2022/01/18 12:07:36;;;;;;;13.65;4.15;;;7.60;99.90;;;;;;5072455;28;20515;-72
2022/01/18 12:10:29;;;;;;;10.93;3.60;;;7.60;99.90;;;;;;5071733;28;20048;-80
2022/01/18 12:12:57;;;;;;;13.77;3.97;;;7.70;99.90;;;;;;5067880;28;20065;-72
2022/01/18 12:15:22;;;;;;;7.68;3.47;;;7.60;99.90;;;;;;5072148;28;20072;-80
2022/01/18 12:17:52;;;;;;;10.13;4.25;;;7.60;99.90;;;;;;5071293;28;20087;-80
2022/01/18 12:20:37;;;;;;;10.60;4.95;;;7.60;99.90;;;;;;5072005;28;20039;-81
2022/01/18 12:23:08;;;;;;;13.90;4.35;;;7.50;99.90;;;;;;5072705;28;20508;-80
2022/01/18 12:25:36;;;;;;;12.10;4.05;;;7.60;99.90;;;;;;5071023;28;20041;-78
2022/01/18 12:28:46;;;;;;;7.30;4.18;;;7.50;99.90;;;;;;5047224;28;20041;-80
2022/01/18 12:31:52;;;;;;;13.27;4.20;;;7.60;99.90;;;;;;5054802;28;20044;-80
2022/01/18 12:34:38;;;;;;;12.75;4.60;;;7.50;99.90;;;;;;5055081;28;20036;-71
2022/01/18 12:37:07;;;;;;;14.43;4.63;;;7.50;99.90;;;;;;5055417;28;20037;-80
2022/01/18 12:39:52;;;;;;;11.13;3.78;;;7.50;99.90;;;;;;5054155;28;20123;-76
2022/01/18 12:45:15;;;;;;;9.35;4.45;;;7.50;99.90;;;;;;5065954;28;20044;-80
2022/01/18 12:47:50;;;;;;;11.13;4.35;;;7.50;99.90;;;;;;5070621;28;20512;-80
2022/01/18 12:50:19;;;;;;;10.05;3.95;;;7.50;99.90;;;;;;5070906;28;20393;-77
2022/01/18 12:53:00;;;;;;;11.68;4.43;;;7.60;99.90;;;;;;5068517;28;20056;-80
2022/01/18 12:55:41;;;;;;;9.88;4.35;;;7.60;99.90;;;;;;5058156;28;20049;-78
2022/01/18 12:58:17;;;;;;;10.65;4.50;;;7.60;99.90;;;;;;5067458;28;20542;-77
2022/01/18 13:00:49;;;;;;;9.90;4.40;;;7.60;99.90;;;;;;5054342;28;20528;-72
2022/01/18 13:03:17;;;;;;;10.75;4.40;;;7.70;99.90;;;;;;5048251;28;20071;-71
2022/01/18 13:05:44;;;;;;;13.95;5.13;;;7.60;99.90;;;;;;5071134;28;20048;-71
2022/01/18 13:08:13;;;;;;;8.88;3.97;;;7.60;99.90;;;;;;5070354;28;20048;-80
2022/01/18 13:10:45;;;;;;;14.38;4.20;;;7.60;99.90;;;;;;5071493;28;20044;-80
2022/01/18 13:13:14;;;;;;;11.75;3.75;;;7.70;99.90;;;;;;5071705;28;20044;-80
2022/01/18 13:26:31;;;;;;;12.52;4.80;;;7.70;99.90;;;;;;5071131;28;20405;-72
2022/01/18 13:29:12;;;;;;;11.68;4.40;;;7.70;99.90;;;;;;5070354;28;20119;-80
2022/01/18 13:31:40;;;;;;;11.10;4.07;;;7.80;99.90;;;;;;5071392;28;20045;-77
2022/01/18 13:34:10;;;;;;;13.63;5.10;;;7.80;99.90;;;;;;5071213;28;20299;-77
2022/01/18 13:36:57;;;;;;;7.65;3.95;;;7.80;99.90;;;;;;5070560;28;20056;-80
2022/01/18 13:39:28;;;;;;;11.77;5.03;;;7.80;99.90;;;;;;5071151;28;20398;-80
2022/01/18 13:41:54;;;;;;;14.27;6.93;;;7.70;99.90;;;;;;5070235;28;20085;-72
2022/01/18 13:44:20;;;;;;;14.68;7.85;;;7.70;99.90;;;;;;5070715;28;20049;-76
2022/01/18 13:46:45;;;;;;;16.38;7.57;;;7.70;99.90;;;;;;5071351;28;20040;-80
2022/01/18 13:49:11;;;;;;;9.27;5.45;;;7.70;99.90;;;;;;5056739;28;20181;-80
2022/01/18 13:51:37;;;;;;;17.55;5.95;;;7.60;99.90;;;;;;5073934;28;20135;-80
2022/01/18 13:54:06;;;;;;;13.32;5.70;;;7.70;99.90;;;;;;5073818;28;20048;-80
2022/01/18 13:56:32;;;;;;;14.60;6.13;;;7.60;99.90;;;;;;5073222;28;20043;-80
2022/01/18 13:59:05;;;;;;;13.45;6.63;;;7.50;99.90;;;;;;5072894;28;20036;-81
2022/01/18 14:01:41;;;;;;;18.17;8.93;;;7.50;99.90;;;;;;5073464;28;20489;-80
2022/01/18 14:04:33;;;;;;;17.50;10.13;;;7.40;99.90;;;;;;5056017;28;20032;-71
2022/01/18 14:07:03;;;;;;;20.80;10.87;;;7.30;99.90;;;;;;5068926;28;20060;-79
2022/01/18 14:09:28;;;;;;;20.23;10.98;;;7.20;99.90;;;;;;5073026;28;20040;-72
2022/01/18 14:11:55;;;;;;;21.13;11.43;;;7.20;99.90;;;;;;5076115;28;20051;-81
2022/01/18 14:14:30;;;;;;;22.50;12.07;;;7.20;99.90;;;;;;5076340;28;20093;-79